sensor_id;sensor_type;location;lat;lon;timestamp;pressure;altitude;pressure_sealevel;temperature;humidity
18500;BME280;9379;52.134;11.576;2022-10-18T00:02:15;101860.31;;;21.39;94.01
18500;BME280;9379;52.134;11.576;2022-10-18T00:04:44;101844.63;;;21.26;95.89
18500;BME280;9379;52.134;11.576;2022-10-18T00:07:11;101846.13;;;21.37;95.34
18500;BME280;9379;52.134;11.576;2022-10-18T00:09:37;101863.53;;;21.43;97.00
18500;BME280;9379;52.134;11.576;2022-10-18T00:12:04;101863.16;;;21.46;96.07
18500;BME280;9379;52.134;11.576;2022-10-18T00:14:34;101858.81;;;21.37;95.79
18500;BME280;9379;52.134;11.576;2022-10-18T00:17:02;101862.03;;;21.24;96.58
18500;BME280;9379;52.134;11.576;2022-10-18T00:19:29;101860.19;;;21.16;96.80
18500;BME280;9379;52.134;11.576;2022-10-18T00:21:56;101858.81;;;21.29;95.94
18500;BME280;9379;52.134;11.576;2022-10-18T00:24:22;101868.00;;;21.11;97.48
18500;BME280;9379;52.134;11.576;2022-10-18T00:26:49;101860.84;;;21.18;97.23
18500;BME280;9379;52.134;11.576;2022-10-18T00:29:16;101872.03;;;21.32;96.03
18500;BME280;9379;52.134;11.576;2022-10-18T00:31:43;101864.88;;;20.75;100.00
18500;BME280;9379;52.134;11.576;2022-10-18T00:34:13;101846.13;;;20.65;100.00
18500;BME280;9379;52.134;11.576;2022-10-18T00:36:40;101865.00;;;20.82;100.00
18500;BME280;9379;52.134;11.576;2022-10-18T00:39:08;101866.31;;;21.02;99.41
18500;BME280;9379;52.134;11.576;2022-10-18T00:41:37;101850.94;;;21.03;98.92
18500;BME280;9379;52.134;11.576;2022-10-18T00:44:05;101840.41;;;21.24;97.26
18500;BME280;9379;52.134;11.576;2022-10-18T00:46:36;101861.50;;;21.37;96.53
18500;BME280;9379;52.134;11.576;2022-10-18T00:49:06;101864.84;;;21.47;95.99
18500;BME280;9379;52.134;11.576;2022-10-18T00:51:40;101863.91;;;21.63;95.28
18500;BME280;9379;52.134;11.576;2022-10-18T00:54:08;101850.13;;;21.49;95.29
18500;BME280;9379;52.134;11.576;2022-10-18T00:56:36;101850.97;;;21.50;95.12
18500;BME280;9379;52.134;11.576;2022-10-18T00:59:04;101869.22;;;21.56;95.92
18500;BME280;9379;52.134;11.576;2022-10-18T01:01:31;101844.06;;;21.47;95.07
18500;BME280;9379;52.134;11.576;2022-10-18T01:03:58;101843.03;;;21.48;95.19
18500;BME280;9379;52.134;11.576;2022-10-18T01:06:24;101828.25;;;21.20;97.66
18500;BME280;9379;52.134;11.576;2022-10-18T01:09:02;101851.72;;;21.27;97.16
18500;BME280;9379;52.134;11.576;2022-10-18T01:11:43;101861.16;;;21.40;96.70
18500;BME280;9379;52.134;11.576;2022-10-18T01:14:21;101876.06;;;21.36;96.61
18500;BME280;9379;52.134;11.576;2022-10-18T01:16:58;101862.56;;;21.27;96.97
18500;BME280;9379;52.134;11.576;2022-10-18T01:19:48;101859.81;;;21.36;97.26
18500;BME280;9379;52.134;11.576;2022-10-18T01:22:22;101874.06;;;21.21;98.31
18500;BME280;9379;52.134;11.576;2022-10-18T01:25:08;101861.22;;;21.15;97.89
18500;BME280;9379;52.134;11.576;2022-10-18T01:27:44;101858.31;;;21.17;98.00
18500;BME280;9379;52.134;11.576;2022-10-18T01:30:42;101864.69;;;20.77;99.82
18500;BME280;9379;52.134;11.576;2022-10-18T01:33:24;101853.72;;;20.70;100.00
18500;BME280;9379;52.134;11.576;2022-10-18T01:35:56;101860.16;;;20.53;100.00
18500;BME280;9379;52.134;11.576;2022-10-18T01:38:25;101865.19;;;20.88;98.96
18500;BME280;9379;52.134;11.576;2022-10-18T01:40:54;101846.78;;;20.84;98.70
18500;BME280;9379;52.134;11.576;2022-10-18T01:43:23;101854.03;;;20.83;98.69
18500;BME280;9379;52.134;11.576;2022-10-18T01:45:53;101837.97;;;20.82;98.35
18500;BME280;9379;52.134;11.576;2022-10-18T01:48:21;101850.47;;;20.99;97.03
18500;BME280;9379;52.134;11.576;2022-10-18T01:50:48;101851.28;;;21.08;96.16
18500;BME280;9379;52.134;11.576;2022-10-18T01:53:25;101855.13;;;21.13;96.21
18500;BME280;9379;52.134;11.576;2022-10-18T01:56:01;101857.56;;;21.00;96.89
18500;BME280;9379;52.134;11.576;2022-10-18T01:58:36;101855.88;;;20.99;97.37
18500;BME280;9379;52.134;11.576;2022-10-18T02:01:08;101863.97;;;20.91;97.39
18500;BME280;9379;52.134;11.576;2022-10-18T02:03:42;101860.13;;;20.77;97.90
18500;BME280;9379;52.134;11.576;2022-10-18T02:06:17;101875.28;;;20.94;97.21
18500;BME280;9379;52.134;11.576;2022-10-18T02:08:48;101871.59;;;20.95;96.75
18500;BME280;9379;52.134;11.576;2022-10-18T02:11:17;101874.63;;;20.35;100.00
18500;BME280;9379;52.134;11.576;2022-10-18T02:13:47;101872.44;;;20.15;100.00
18500;BME280;9379;52.134;11.576;2022-10-18T02:16:19;101868.75;;;20.56;99.84
18500;BME280;9379;52.134;11.576;2022-10-18T02:18:54;101878.88;;;20.79;98.21
18500;BME280;9379;52.134;11.576;2022-10-18T02:21:23;101870.78;;;20.54;99.21
18500;BME280;9379;52.134;11.576;2022-10-18T02:23:51;101861.16;;;20.44;99.59
18500;BME280;9379;52.134;11.576;2022-10-18T02:26:18;101867.56;;;20.75;98.09
18500;BME280;9379;52.134;11.576;2022-10-18T02:28:45;101876.38;;;20.61;98.62
18500;BME280;9379;52.134;11.576;2022-10-18T02:31:15;101874.47;;;20.69;97.98
18500;BME280;9379;52.134;11.576;2022-10-18T02:33:50;101876.84;;;20.81;97.29
18500;BME280;9379;52.134;11.576;2022-10-18T02:36:21;101864.16;;;20.81;97.23
18500;BME280;9379;52.134;11.576;2022-10-18T02:38:52;101871.63;;;20.63;98.80
18500;BME280;9379;52.134;11.576;2022-10-18T02:41:24;101873.97;;;20.42;100.00
18500;BME280;9379;52.134;11.576;2022-10-18T02:43:51;101874.13;;;20.16;100.00
18500;BME280;9379;52.134;11.576;2022-10-18T02:46:19;101870.63;;;20.56;99.40
18500;BME280;9379;52.134;11.576;2022-10-18T02:48:47;101879.72;;;20.71;97.73
18500;BME280;9379;52.134;11.576;2022-10-18T02:51:14;101871.25;;;20.82;96.65
18500;BME280;9379;52.134;11.576;2022-10-18T02:53:41;101867.56;;;20.59;97.61
18500;BME280;9379;52.134;11.576;2022-10-18T02:56:08;101875.50;;;20.60;97.30
18500;BME280;9379;52.134;11.576;2022-10-18T02:58:35;101878.69;;;20.39;99.42
18500;BME280;9379;52.134;11.576;2022-10-18T03:01:01;101869.59;;;20.49;98.13
18500;BME280;9379;52.134;11.576;2022-10-18T03:03:28;101871.13;;;20.43;98.98
18500;BME280;9379;52.134;11.576;2022-10-18T03:05:56;101869.38;;;20.09;100.00
18500;BME280;9379;52.134;11.576;2022-10-18T03:08:23;101865.00;;;19.92;100.00
18500;BME280;9379;52.134;11.576;2022-10-18T03:10:50;101883.16;;;19.90;100.00
18500;BME280;9379;52.134;11.576;2022-10-18T03:13:17;101869.81;;;19.72;100.00
18500;BME280;9379;52.134;11.576;2022-10-18T03:15:45;101869.44;;;19.59;100.00
18500;BME280;9379;52.134;11.576;2022-10-18T03:18:12;101885.81;;;19.66;100.00
18500;BME280;9379;52.134;11.576;2022-10-18T03:20:39;101874.66;;;19.61;100.00
18500;BME280;9379;52.134;11.576;2022-10-18T03:23:09;101875.22;;;19.72;100.00
18500;BME280;9379;52.134;11.576;2022-10-18T03:25:37;101846.63;;;19.53;100.00
18500;BME280;9379;52.134;11.576;2022-10-18T03:28:04;101853.19;;;19.51;100.00
18500;BME280;9379;52.134;11.576;2022-10-18T03:30:30;101872.88;;;19.86;100.00
18500;BME280;9379;52.134;11.576;2022-10-18T03:33:00;101865.94;;;19.75;100.00
18500;BME280;9379;52.134;11.576;2022-10-18T03:35:30;101868.69;;;19.49;100.00
18500;BME280;9379;52.134;11.576;2022-10-18T03:37:56;101856.97;;;19.58;100.00
18500;BME280;9379;52.134;11.576;2022-10-18T03:40:24;101871.91;;;19.95;100.00
18500;BME280;9379;52.134;11.576;2022-10-18T03:42:51;101858.16;;;19.64;100.00
18500;BME280;9379;52.134;11.576;2022-10-18T03:48:03;101868.31;;;19.36;100.00
18500;BME280;9379;52.134;11.576;2022-10-18T03:50:30;101866.16;;;19.47;100.00
18500;BME280;9379;52.134;11.576;2022-10-18T03:52:57;101856.97;;;19.58;100.00
18500;BME280;9379;52.134;11.576;2022-10-18T03:55:25;101865.09;;;19.74;100.00
18500;BME280;9379;52.134;11.576;2022-10-18T03:57:52;101858.84;;;19.74;100.00
18500;BME280;9379;52.134;11.576;2022-10-18T04:00:18;101837.69;;;19.53;100.00
18500;BME280;9379;52.134;11.576;2022-10-18T04:02:45;101863.06;;;19.68;100.00
18500;BME280;9379;52.134;11.576;2022-10-18T04:05:12;101859.38;;;19.77;100.00
18500;BME280;9379;52.134;11.576;2022-10-18T04:07:39;101846.88;;;19.68;100.00
18500;BME280;9379;52.134;11.576;2022-10-18T04:10:07;101856.47;;;19.63;100.00
18500;BME280;9379;52.134;11.576;2022-10-18T04:12:38;101862.97;;;19.52;100.00
18500;BME280;9379;52.134;11.576;2022-10-18T04:15:06;101861.81;;;19.20;100.00
18500;BME280;9379;52.134;11.576;2022-10-18T04:17:33;101868.03;;;19.13;100.00
18500;BME280;9379;52.134;11.576;2022-10-18T04:19:59;101853.38;;;19.15;100.00
18500;BME280;9379;52.134;11.576;2022-10-18T04:22:26;101865.34;;;19.13;100.00
18500;BME280;9379;52.134;11.576;2022-10-18T04:24:53;101853.59;;;19.22;100.00
18500;BME280;9379;52.134;11.576;2022-10-18T04:27:21;101858.88;;;19.40;100.00
18500;BME280;9379;52.134;11.576;2022-10-18T04:29:49;101853.59;;;19.22;100.00
18500;BME280;9379;52.134;11.576;2022-10-18T04:32:16;101832.53;;;18.91;100.00
18500;BME280;9379;52.134;11.576;2022-10-18T04:34:44;101839.09;;;18.89;100.00
18500;BME280;9379;52.134;11.576;2022-10-18T04:37:11;101811.28;;;18.62;100.00
18500;BME280;9379;52.134;11.576;2022-10-18T04:39:38;101839.19;;;18.79;100.00
18500;BME280;9379;52.134;11.576;2022-10-18T04:42:05;101815.63;;;18.55;100.00
18500;BME280;9379;52.134;11.576;2022-10-18T04:44:31;101838.13;;;18.72;100.00
18500;BME280;9379;52.134;11.576;2022-10-18T04:47:00;101818.94;;;18.67;100.00
18500;BME280;9379;52.134;11.576;2022-10-18T04:49:26;101826.50;;;18.98;100.00
18500;BME280;9379;52.134;11.576;2022-10-18T04:51:55;101835.97;;;19.10;100.00
18500;BME280;9379;52.134;11.576;2022-10-18T04:54:22;101843.78;;;18.87;100.00
18500;BME280;9379;52.134;11.576;2022-10-18T04:56:48;101838.22;;;19.14;100.00
18500;BME280;9379;52.134;11.576;2022-10-18T04:59:15;101839.28;;;19.64;100.00
18500;BME280;9379;52.134;11.576;2022-10-18T05:01:42;101808.63;;;19.31;100.00
18500;BME280;9379;52.134;11.576;2022-10-18T05:04:10;101830.84;;;19.24;100.00
18500;BME280;9379;52.134;11.576;2022-10-18T05:06:37;101816.16;;;19.19;100.00
18500;BME280;9379;52.134;11.576;2022-10-18T05:09:04;101823.97;;;19.72;100.00
18500;BME280;9379;52.134;11.576;2022-10-18T05:11:37;101821.81;;;20.00;98.86
18500;BME280;9379;52.134;11.576;2022-10-18T05:14:03;101794.81;;;20.00;97.94
18500;BME280;9379;52.134;11.576;2022-10-18T05:16:34;101806.78;;;20.14;97.65
18500;BME280;9379;52.134;11.576;2022-10-18T05:19:02;101812.56;;;20.27;96.57
18500;BME280;9379;52.134;11.576;2022-10-18T05:21:31;101806.31;;;20.27;96.51
18500;BME280;9379;52.134;11.576;2022-10-18T05:23:57;101806.31;;;20.19;96.46
18500;BME280;9379;52.134;11.576;2022-10-18T05:26:26;101798.03;;;20.12;96.77
18500;BME280;9379;52.134;11.576;2022-10-18T05:28:53;101792.53;;;19.55;99.85
18500;BME280;9379;52.134;11.576;2022-10-18T05:31:19;101804.72;;;19.59;100.00
18500;BME280;9379;52.134;11.576;2022-10-18T05:33:46;101807.31;;;19.35;100.00
18500;BME280;9379;52.134;11.576;2022-10-18T05:36:13;101784.22;;;19.40;100.00
18500;BME280;9379;52.134;11.576;2022-10-18T05:38:41;101788.56;;;19.75;99.70
18500;BME280;9379;52.134;11.576;2022-10-18T05:41:10;101806.63;;;19.99;97.96
18500;BME280;9379;52.134;11.576;2022-10-18T05:43:37;101818.09;;;19.93;98.57
18500;BME280;9379;52.134;11.576;2022-10-18T05:46:05;101824.19;;;19.03;100.00
18500;BME280;9379;52.134;11.576;2022-10-18T05:48:32;101828.84;;;18.67;100.00
18500;BME280;9379;52.134;11.576;2022-10-18T05:50:59;101824.47;;;18.65;100.00
18500;BME280;9379;52.134;11.576;2022-10-18T05:53:27;101821.34;;;18.78;100.00
18500;BME280;9379;52.134;11.576;2022-10-18T05:55:59;101836.91;;;18.92;100.00
18500;BME280;9379;52.134;11.576;2022-10-18T05:58:25;101845.03;;;18.75;100.00
18500;BME280;9379;52.134;11.576;2022-10-18T06:00:52;101857.66;;;18.74;100.00
18500;BME280;9379;52.134;11.576;2022-10-18T06:03:18;101858.47;;;18.92;100.00
18500;BME280;9379;52.134;11.576;2022-10-18T06:05:45;101872.53;;;18.78;100.00
18500;BME280;9379;52.134;11.576;2022-10-18T06:08:12;101871.78;;;18.68;100.00
18500;BME280;9379;52.134;11.576;2022-10-18T06:10:38;101867.63;;;19.00;100.00
18500;BME280;9379;52.134;11.576;2022-10-18T06:13:07;101888.03;;;19.44;100.00
18500;BME280;9379;52.134;11.576;2022-10-18T06:15:34;101886.69;;;19.40;100.00
18500;BME280;9379;52.134;11.576;2022-10-18T06:18:01;101880.91;;;19.27;100.00
18500;BME280;9379;52.134;11.576;2022-10-18T06:20:27;101882.38;;;19.56;100.00
18500;BME280;9379;52.134;11.576;2022-10-18T06:22:54;101874.03;;;19.75;100.00
18500;BME280;9379;52.134;11.576;2022-10-18T06:25:21;101882.84;;;19.85;100.00
18500;BME280;9379;52.134;11.576;2022-10-18T06:27:47;101877.09;;;19.88;98.98
18500;BME280;9379;52.134;11.576;2022-10-18T06:30:16;101857.72;;;19.85;98.56
18500;BME280;9379;52.134;11.576;2022-10-18T06:32:42;101867.50;;;20.02;98.34
18500;BME280;9379;52.134;11.576;2022-10-18T06:35:09;101870.56;;;19.48;100.00
18500;BME280;9379;52.134;11.576;2022-10-18T06:37:36;101869.72;;;19.48;100.00
18500;BME280;9379;52.134;11.576;2022-10-18T06:40:03;101865.41;;;19.29;100.00
18500;BME280;9379;52.134;11.576;2022-10-18T06:42:30;101868.44;;;19.60;100.00
18500;BME280;9379;52.134;11.576;2022-10-18T06:44:57;101859.00;;;19.64;100.00
18500;BME280;9379;52.134;11.576;2022-10-18T06:47:26;101864.28;;;19.90;99.98
18500;BME280;9379;52.134;11.576;2022-10-18T06:49:52;101854.28;;;19.58;100.00
18500;BME280;9379;52.134;11.576;2022-10-18T06:52:19;101860.56;;;19.83;99.77
18500;BME280;9379;52.134;11.576;2022-10-18T06:54:50;101862.94;;;20.02;98.95
18500;BME280;9379;52.134;11.576;2022-10-18T06:57:16;101872.09;;;20.18;98.01
18500;BME280;9379;52.134;11.576;2022-10-18T06:59:43;101870.81;;;19.79;100.00
18500;BME280;9379;52.134;11.576;2022-10-18T07:02:13;101875.91;;;19.83;100.00
18500;BME280;9379;52.134;11.576;2022-10-18T07:04:42;101875.22;;;19.72;100.00
18500;BME280;9379;52.134;11.576;2022-10-18T07:07:09;101875.47;;;20.03;99.34
18500;BME280;9379;52.134;11.576;2022-10-18T07:09:35;101860.09;;;20.12;97.72
18500;BME280;9379;52.134;11.576;2022-10-18T07:12:02;101882.56;;;20.29;97.33
18500;BME280;9379;52.134;11.576;2022-10-18T07:14:29;101883.06;;;20.16;97.99
18500;BME280;9379;52.134;11.576;2022-10-18T07:16:57;101887.13;;;20.28;97.17
18500;BME280;9379;52.134;11.576;2022-10-18T07:19:24;101869.38;;;20.26;96.62
18500;BME280;9379;52.134;11.576;2022-10-18T07:21:52;101892.22;;;20.39;96.62
18500;BME280;9379;52.134;11.576;2022-10-18T07:24:19;101898.84;;;19.87;99.96
18500;BME280;9379;52.134;11.576;2022-10-18T07:26:46;101894.16;;;19.20;100.00
18500;BME280;9379;52.134;11.576;2022-10-18T07:29:12;101897.53;;;18.88;100.00
18500;BME280;9379;52.134;11.576;2022-10-18T07:31:39;101889.84;;;18.76;100.00
18500;BME280;9379;52.134;11.576;2022-10-18T07:34:07;101890.63;;;18.68;100.00
18500;BME280;9379;52.134;11.576;2022-10-18T07:36:35;101899.78;;;18.57;100.00
18500;BME280;9379;52.134;11.576;2022-10-18T07:39:04;101895.44;;;18.82;100.00
18500;BME280;9379;52.134;11.576;2022-10-18T07:41:31;101896.50;;;18.89;100.00
18500;BME280;9379;52.134;11.576;2022-10-18T07:43:59;101891.03;;;18.99;100.00
18500;BME280;9379;52.134;11.576;2022-10-18T07:46:26;101891.31;;;18.96;100.00
18500;BME280;9379;52.134;11.576;2022-10-18T07:48:53;101893.16;;;18.95;100.00
18500;BME280;9379;52.134;11.576;2022-10-18T07:51:20;101909.59;;;18.84;100.00
18500;BME280;9379;52.134;11.576;2022-10-18T07:53:47;101914.81;;;18.86;100.00
18500;BME280;9379;52.134;11.576;2022-10-18T07:56:17;101926.50;;;18.69;100.00
18500;BME280;9379;52.134;11.576;2022-10-18T07:58:45;101917.25;;;18.71;100.00
18500;BME280;9379;52.134;11.576;2022-10-18T08:01:14;101921.63;;;18.72;100.00
18500;BME280;9379;52.134;11.576;2022-10-18T08:03:41;101920.41;;;19.10;100.00
18500;BME280;9379;52.134;11.576;2022-10-18T08:06:09;101912.84;;;19.14;100.00
18500;BME280;9379;52.134;11.576;2022-10-18T08:08:38;101919.09;;;19.48;100.00
18500;BME280;9379;52.134;11.576;2022-10-18T08:11:07;101908.28;;;18.88;100.00
18500;BME280;9379;52.134;11.576;2022-10-18T08:13:35;101909.22;;;18.61;100.00
18500;BME280;9379;52.134;11.576;2022-10-18T08:16:04;101916.19;;;18.64;100.00
18500;BME280;9379;52.134;11.576;2022-10-18T08:18:32;101913.03;;;18.94;100.00
18500;BME280;9379;52.134;11.576;2022-10-18T08:20:59;101897.97;;;18.84;100.00
18500;BME280;9379;52.134;11.576;2022-10-18T08:23:26;101928.94;;;18.80;100.00
18500;BME280;9379;52.134;11.576;2022-10-18T08:25:52;101917.31;;;18.79;100.00
18500;BME280;9379;52.134;11.576;2022-10-18T08:28:19;101918.00;;;18.81;100.00
18500;BME280;9379;52.134;11.576;2022-10-18T08:30:48;101910.16;;;18.70;100.00
18500;BME280;9379;52.134;11.576;2022-10-18T08:33:14;101881.75;;;18.58;100.00
18500;BME280;9379;52.134;11.576;2022-10-18T08:35:41;101903.75;;;18.89;100.00
18500;BME280;9379;52.134;11.576;2022-10-18T08:38:08;101901.09;;;18.71;100.00
18500;BME280;9379;52.134;11.576;2022-10-18T08:40:41;101917.41;;;18.70;100.00
18500;BME280;9379;52.134;11.576;2022-10-18T08:43:15;101906.31;;;18.73;100.00
18500;BME280;9379;52.134;11.576;2022-10-18T08:45:49;101914.44;;;18.99;100.00
18500;BME280;9379;52.134;11.576;2022-10-18T08:48:24;101910.59;;;18.83;100.00
18500;BME280;9379;52.134;11.576;2022-10-18T08:50:56;101904.41;;;18.65;100.00
18500;BME280;9379;52.134;11.576;2022-10-18T08:53:26;101919.63;;;18.74;100.00
18500;BME280;9379;52.134;11.576;2022-10-18T08:55:59;101916.16;;;18.82;100.00
18500;BME280;9379;52.134;11.576;2022-10-18T08:58:30;101916.00;;;18.83;100.00
18500;BME280;9379;52.134;11.576;2022-10-18T09:01:17;101907.19;;;18.99;100.00
18500;BME280;9379;52.134;11.576;2022-10-18T09:03:59;101917.31;;;18.79;100.00
18500;BME280;9379;52.134;11.576;2022-10-18T09:06:32;101891.53;;;18.59;100.00
18500;BME280;9379;52.134;11.576;2022-10-18T09:09:10;101881.72;;;18.93;100.00
18500;BME280;9379;52.134;11.576;2022-10-18T09:11:49;101896.78;;;19.04;100.00
18500;BME280;9379;52.134;11.576;2022-10-18T09:14:36;101898.88;;;18.92;100.00
18500;BME280;9379;52.134;11.576;2022-10-18T09:17:15;101892.88;;;18.99;100.00
18500;BME280;9379;52.134;11.576;2022-10-18T09:19:50;101875.66;;;18.91;100.00
18500;BME280;9379;52.134;11.576;2022-10-18T09:22:25;101893.84;;;18.98;100.00
18500;BME280;9379;52.134;11.576;2022-10-18T09:25:02;101901.16;;;19.39;100.00
18500;BME280;9379;52.134;11.576;2022-10-18T09:27:38;101896.59;;;19.06;100.00
18500;BME280;9379;52.134;11.576;2022-10-18T09:30:14;101888.41;;;19.15;100.00
18500;BME280;9379;52.134;11.576;2022-10-18T09:32:50;101866.34;;;19.12;100.00
18500;BME280;9379;52.134;11.576;2022-10-18T09:35:23;101893.91;;;19.06;100.00
18500;BME280;9379;52.134;11.576;2022-10-18T09:37:54;101881.66;;;19.45;100.00
18500;BME280;9379;52.134;11.576;2022-10-18T09:40:27;101886.13;;;19.29;100.00
18500;BME280;9379;52.134;11.576;2022-10-18T09:42:58;101873.03;;;19.42;100.00
18500;BME280;9379;52.134;11.576;2022-10-18T09:45:30;101874.00;;;19.33;100.00
18500;BME280;9379;52.134;11.576;2022-10-18T09:48:04;101860.53;;;19.75;100.00
18500;BME280;9379;52.134;11.576;2022-10-18T09:50:36;101883.09;;;19.66;100.00
18500;BME280;9379;52.134;11.576;2022-10-18T09:53:11;101883.75;;;19.26;100.00
18500;BME280;9379;52.134;11.576;2022-10-18T09:55:52;101890.56;;;18.86;100.00
18500;BME280;9379;52.134;11.576;2022-10-18T09:58:21;101903.09;;;19.21;100.00
18500;BME280;9379;52.134;11.576;2022-10-18T10:00:50;101902.13;;;19.22;100.00
18500;BME280;9379;52.134;11.576;2022-10-18T10:03:19;101889.59;;;19.13;100.00
18500;BME280;9379;52.134;11.576;2022-10-18T10:06:01;101899.97;;;19.34;100.00
18500;BME280;9379;52.134;11.576;2022-10-18T10:08:32;101902.06;;;19.90;100.00
18500;BME280;9379;52.134;11.576;2022-10-18T10:10:59;101905.81;;;20.05;100.00
18500;BME280;9379;52.134;11.576;2022-10-18T10:13:26;101916.03;;;19.77;100.00
18500;BME280;9379;52.134;11.576;2022-10-18T10:15:55;101901.13;;;19.65;100.00
18500;BME280;9379;52.134;11.576;2022-10-18T10:18:26;101921.19;;;19.63;100.00
18500;BME280;9379;52.134;11.576;2022-10-18T10:20:56;101894.03;;;19.30;100.00
18500;BME280;9379;52.134;11.576;2022-10-18T10:23:26;101901.69;;;19.77;100.00
18500;BME280;9379;52.134;11.576;2022-10-18T10:25:56;101909.66;;;19.87;100.00
18500;BME280;9379;52.134;11.576;2022-10-18T10:28:28;101899.53;;;19.80;100.00
18500;BME280;9379;52.134;11.576;2022-10-18T10:31:16;101886.56;;;19.92;100.00
18500;BME280;9379;52.134;11.576;2022-10-18T10:33:46;101874.81;;;20.18;100.00
18500;BME280;9379;52.134;11.576;2022-10-18T10:36:19;101887.44;;;20.25;100.00
18500;BME280;9379;52.134;11.576;2022-10-18T10:39:01;101889.53;;;20.48;100.00
18500;BME280;9379;52.134;11.576;2022-10-18T10:41:29;101892.72;;;20.43;100.00
18500;BME280;9379;52.134;11.576;2022-10-18T10:43:56;101876.00;;;20.48;100.00
18500;BME280;9379;52.134;11.576;2022-10-18T10:46:32;101908.31;;;19.99;100.00
18500;BME280;9379;52.134;11.576;2022-10-18T10:49:02;101883.91;;;20.17;100.00
18500;BME280;9379;52.134;11.576;2022-10-18T10:51:31;101910.56;;;20.36;100.00
18500;BME280;9379;52.134;11.576;2022-10-18T10:54:02;101906.69;;;20.22;100.00
18500;BME280;9379;52.134;11.576;2022-10-18T10:56:35;101887.41;;;20.01;100.00
18500;BME280;9379;52.134;11.576;2022-10-18T10:59:12;101877.59;;;19.84;100.00
18500;BME280;9379;52.134;11.576;2022-10-18T11:01:40;101917.91;;;19.85;100.00
18500;BME280;9379;52.134;11.576;2022-10-18T11:04:27;101916.25;;;19.92;100.00
18500;BME280;9379;52.134;11.576;2022-10-18T11:07:05;101912.44;;;20.27;100.00
18500;BME280;9379;52.134;11.576;2022-10-18T11:09:53;101923.56;;;20.16;100.00
18500;BME280;9379;52.134;11.576;2022-10-18T11:12:31;101913.09;;;20.05;100.00
18500;BME280;9379;52.134;11.576;2022-10-18T11:15:16;101909.06;;;20.33;100.00
18500;BME280;9379;52.134;11.576;2022-10-18T11:18:00;101897.19;;;19.94;100.00
18500;BME280;9379;52.134;11.576;2022-10-18T11:20:36;101889.81;;;20.20;100.00
18500;BME280;9379;52.134;11.576;2022-10-18T11:23:06;101880.38;;;20.16;100.00
18500;BME280;9379;52.134;11.576;2022-10-18T11:25:54;101901.00;;;20.58;100.00
18500;BME280;9379;52.134;11.576;2022-10-18T11:28:34;101902.00;;;20.49;99.87
18500;BME280;9379;52.134;11.576;2022-10-18T11:31:13;101894.38;;;20.36;100.00
18500;BME280;9379;52.134;11.576;2022-10-18T11:33:58;101895.22;;;20.36;100.00
18500;BME280;9379;52.134;11.576;2022-10-18T11:36:36;101902.19;;;20.55;100.00
18500;BME280;9379;52.134;11.576;2022-10-18T11:39:08;101898.81;;;20.53;99.50
18500;BME280;9379;52.134;11.576;2022-10-18T11:41:39;101888.84;;;20.37;100.00
18500;BME280;9379;52.134;11.576;2022-10-18T11:44:18;101887.59;;;19.91;100.00
18500;BME280;9379;52.134;11.576;2022-10-18T11:46:56;101894.22;;;20.29;100.00
18500;BME280;9379;52.134;11.576;2022-10-18T11:49:51;101897.97;;;20.45;100.00
18500;BME280;9379;52.134;11.576;2022-10-18T11:52:26;101893.63;;;19.85;100.00
18500;BME280;9379;52.134;11.576;2022-10-18T11:55:08;101907.63;;;19.46;100.00
18500;BME280;9379;52.134;11.576;2022-10-18T11:57:42;101895.56;;;20.17;100.00
18500;BME280;9379;52.134;11.576;2022-10-18T12:00:20;101899.91;;;20.10;100.00
18500;BME280;9379;52.134;11.576;2022-10-18T12:03:12;101897.06;;;20.03;100.00
18500;BME280;9379;52.134;11.576;2022-10-18T12:05:42;101891.78;;;20.02;100.00
18500;BME280;9379;52.134;11.576;2022-10-18T12:08:12;101888.94;;;20.11;100.00
18500;BME280;9379;52.134;11.576;2022-10-18T12:10:42;101894.22;;;20.29;100.00
18500;BME280;9379;52.134;11.576;2022-10-18T12:13:15;101894.72;;;20.17;100.00
18500;BME280;9379;52.134;11.576;2022-10-18T12:15:43;101891.66;;;20.03;100.00
18500;BME280;9379;52.134;11.576;2022-10-18T12:18:14;101901.63;;;20.19;100.00
18500;BME280;9379;52.134;11.576;2022-10-18T12:20:45;101894.88;;;20.23;100.00
18500;BME280;9379;52.134;11.576;2022-10-18T12:23:16;101891.31;;;19.56;100.00
18500;BME280;9379;52.134;11.576;2022-10-18T12:25:49;101885.72;;;20.00;100.00
18500;BME280;9379;52.134;11.576;2022-10-18T12:28:28;101877.47;;;19.93;100.00
18500;BME280;9379;52.134;11.576;2022-10-18T12:31:05;101880.13;;;19.85;100.00
18500;BME280;9379;52.134;11.576;2022-10-18T12:33:35;101874.38;;;19.72;100.00
18500;BME280;9379;52.134;11.576;2022-10-18T12:36:16;101878.31;;;20.02;100.00
18500;BME280;9379;52.134;11.576;2022-10-18T12:38:49;101867.56;;;20.26;100.00
18500;BME280;9379;52.134;11.576;2022-10-18T12:41:20;101847.13;;;20.07;100.00
18500;BME280;9379;52.134;11.576;2022-10-18T12:43:52;101850.66;;;20.32;100.00
18500;BME280;9379;52.134;11.576;2022-10-18T12:46:20;101850.84;;;20.15;100.00
18500;BME280;9379;52.134;11.576;2022-10-18T12:48:50;101863.53;;;20.55;100.00
18500;BME280;9379;52.134;11.576;2022-10-18T12:51:26;101873.47;;;20.87;100.00
18500;BME280;9379;52.134;11.576;2022-10-18T12:54:10;101863.00;;;20.84;98.26
18500;BME280;9379;52.134;11.576;2022-10-18T12:56:40;101866.44;;;21.17;97.02
18500;BME280;9379;52.134;11.576;2022-10-18T13:02:29;101867.06;;;20.55;96.20
18500;BME280;9379;52.134;11.576;2022-10-18T13:04:57;101870.88;;;21.02;95.24
18500;BME280;9379;52.134;11.576;2022-10-18T13:07:35;101868.72;;;20.97;96.99